createdAt,value
2022-11-13T05:30:32.368Z,5.99
2022-11-13T05:31:32.229Z,5.89
2022-11-13T05:32:32.248Z,5.89
2022-11-13T05:33:32.206Z,5.91
2022-11-13T05:34:32.242Z,5.83
2022-11-13T05:35:32.183Z,5.85
2022-11-13T05:36:32.177Z,5.79
2022-11-13T05:37:32.192Z,5.89
2022-11-13T05:38:32.154Z,5.81
2022-11-13T05:39:32.161Z,5.72
2022-11-13T05:40:32.128Z,5.76
2022-11-13T05:41:32.119Z,5.71
2022-11-13T05:42:32.111Z,5.68
2022-11-13T05:43:32.110Z,5.61
2022-11-13T05:44:32.097Z,5.65
2022-11-13T05:45:32.111Z,5.58
2022-11-13T05:46:32.174Z,5.57
2022-11-13T05:47:32.053Z,5.53
2022-11-13T05:48:32.120Z,5.53
2022-11-13T05:49:32.047Z,5.51
2022-11-13T05:50:32.029Z,5.57
2022-11-13T05:51:32.013Z,5.53
2022-11-13T05:52:32.071Z,5.46
2022-11-13T05:53:31.987Z,5.40
2022-11-13T05:54:31.975Z,5.42
2022-11-13T05:55:31.992Z,5.43
2022-11-13T05:56:31.968Z,5.43
2022-11-13T05:57:31.952Z,5.48
2022-11-13T05:58:31.950Z,5.54
2022-11-13T05:59:31.927Z,5.58
2022-11-13T06:00:31.952Z,5.51
2022-11-13T06:01:32.026Z,5.51
2022-11-13T06:02:32.003Z,5.63
2022-11-13T06:03:31.890Z,5.54
2022-11-13T06:04:31.910Z,5.58
2022-11-13T06:05:31.880Z,5.58
2022-11-13T06:06:31.871Z,5.61
2022-11-13T06:07:31.839Z,5.58
2022-11-13T06:08:31.848Z,5.54
2022-11-13T06:09:31.828Z,5.57
2022-11-13T06:10:31.822Z,5.54
2022-11-13T06:11:31.803Z,5.53
2022-11-13T06:12:31.843Z,5.53
2022-11-13T06:13:31.780Z,5.53
2022-11-13T06:14:32.526Z,5.61
2022-11-13T06:15:31.771Z,5.56
2022-11-13T06:16:31.744Z,5.58
2022-11-13T06:17:31.734Z,5.51
2022-11-13T06:18:32.241Z,5.53
2022-11-13T06:19:31.715Z,5.51
2022-11-13T06:20:31.722Z,5.49
2022-11-13T06:21:31.690Z,5.42
2022-11-13T06:22:31.680Z,5.51
2022-11-13T06:23:31.670Z,5.56
2022-11-13T06:24:31.704Z,5.49
2022-11-13T06:25:31.689Z,5.49
2022-11-13T06:26:31.676Z,5.53
2022-11-13T06:27:31.682Z,5.51
2022-11-13T06:28:31.809Z,5.46
2022-11-13T06:29:31.633Z,5.56
2022-11-13T06:30:31.624Z,5.54
2022-11-13T06:31:31.622Z,5.58
2022-11-13T06:32:31.623Z,5.51
2022-11-13T06:33:31.586Z,5.54
2022-11-13T06:34:31.686Z,5.53
2022-11-13T06:35:31.595Z,5.57
2022-11-13T06:36:31.544Z,5.51
2022-11-13T06:37:34.695Z,5.54
2022-11-13T06:38:31.955Z,5.46
2022-11-13T06:39:31.530Z,5.57
2022-11-13T06:40:31.486Z,5.53
2022-11-13T06:41:31.537Z,5.46
2022-11-13T06:42:31.495Z,5.46
2022-11-13T06:43:31.493Z,5.48
2022-11-13T06:44:31.476Z,5.46
2022-11-13T06:45:31.526Z,5.39
2022-11-13T06:46:31.440Z,5.45
2022-11-13T06:47:31.495Z,5.39
2022-11-13T06:48:31.630Z,5.43
2022-11-13T06:49:31.398Z,5.43
2022-11-13T06:50:31.450Z,5.45
2022-11-13T06:51:31.383Z,5.42
2022-11-13T06:52:31.360Z,5.38
2022-11-13T06:53:31.367Z,5.39
2022-11-13T06:54:31.340Z,5.38
2022-11-13T06:55:31.347Z,5.33
2022-11-13T06:56:31.319Z,5.36
2022-11-13T06:57:31.331Z,5.38
2022-11-13T06:58:31.698Z,5.38
2022-11-13T06:59:31.302Z,5.21
2022-11-13T07:00:36.346Z,5.31
2022-11-13T07:01:32.351Z,5.33
2022-11-13T07:02:31.290Z,5.36
2022-11-13T07:03:31.246Z,5.31
2022-11-13T07:04:31.241Z,5.35
2022-11-13T07:05:31.228Z,5.27
2022-11-13T07:06:33.928Z,5.39
2022-11-13T07:07:32.201Z,5.24
2022-11-13T07:08:31.403Z,5.21
2022-11-13T07:09:31.248Z,5.28
2022-11-13T07:10:31.185Z,5.31
2022-11-13T07:11:31.188Z,5.40
2022-11-13T07:12:31.153Z,5.35
2022-11-13T07:13:31.143Z,5.27
2022-11-13T07:14:31.166Z,5.35
2022-11-13T07:15:31.153Z,5.28
2022-11-13T07:16:43.986Z,5.28
2022-11-13T07:17:32.124Z,5.35
2022-11-13T07:18:31.213Z,5.17
2022-11-13T07:19:31.105Z,5.27
2022-11-13T07:20:31.068Z,5.35
2022-11-13T07:21:31.053Z,5.36
2022-11-13T07:22:31.157Z,5.28
2022-11-13T07:23:31.044Z,5.30
2022-11-13T07:24:31.046Z,5.27
2022-11-13T07:25:31.017Z,5.38
2022-11-13T07:26:30.999Z,5.33
2022-11-13T07:27:31.005Z,5.28
2022-11-13T07:28:31.332Z,5.35
2022-11-13T07:29:30.988Z,5.35
2022-11-13T07:30:30.963Z,5.31
2022-11-13T07:31:30.948Z,5.38
2022-11-13T07:32:30.937Z,5.27
2022-11-13T07:33:30.953Z,5.33
2022-11-13T07:34:30.917Z,5.33
2022-11-13T07:35:30.915Z,5.27
2022-11-13T07:36:30.915Z,5.21
2022-11-13T07:37:30.896Z,5.24
2022-11-13T07:38:31.344Z,5.22
2022-11-13T07:39:30.876Z,5.30
2022-11-13T07:40:30.876Z,5.39
2022-11-13T07:41:30.854Z,5.17
2022-11-13T07:42:30.836Z,5.30
2022-11-13T07:43:30.837Z,5.28
2022-11-13T07:44:53.457Z,5.31
2022-11-13T07:45:31.795Z,5.40
2022-11-13T07:46:30.799Z,5.42
2022-11-13T07:47:30.780Z,5.38
2022-11-13T07:48:31.394Z,5.43
2022-11-13T07:49:30.821Z,5.45
2022-11-13T07:50:30.754Z,5.38
2022-11-13T07:51:30.751Z,5.46
2022-11-13T07:52:30.720Z,5.46
2022-11-13T07:53:30.708Z,5.51
2022-11-13T07:54:30.818Z,5.53
2022-11-13T07:55:30.771Z,5.54
2022-11-13T07:56:30.687Z,5.57
2022-11-13T07:57:30.696Z,5.63
2022-11-13T07:58:31.259Z,5.75
2022-11-13T07:59:30.659Z,5.78
2022-11-13T08:00:30.643Z,6.01
2022-11-13T08:01:30.708Z,6.08
2022-11-13T08:02:30.621Z,6.17
2022-11-13T08:03:30.598Z,6.28
2022-11-13T08:04:30.593Z,6.46
2022-11-13T08:05:30.602Z,6.58
2022-11-13T08:06:30.632Z,6.67
2022-11-13T08:07:30.563Z,6.66
2022-11-13T08:08:30.955Z,6.74
2022-11-13T08:09:30.551Z,6.89
2022-11-13T08:10:30.546Z,7.07
2022-11-13T08:11:30.539Z,7.07
2022-11-13T08:12:30.575Z,7.21
2022-11-13T08:13:30.504Z,7.32
2022-11-13T08:14:30.491Z,7.25
2022-11-13T08:15:30.474Z,7.46
2022-11-13T08:16:30.476Z,7.50
2022-11-13T08:17:30.454Z,7.58
2022-11-13T08:18:30.946Z,7.72
2022-11-13T08:19:30.505Z,7.74
2022-11-13T08:20:30.419Z,7.92
2022-11-13T08:21:30.424Z,7.95
2022-11-13T08:22:30.405Z,8.10
2022-11-13T08:23:30.411Z,8.08
2022-11-13T08:24:30.375Z,8.07
2022-11-13T08:25:30.377Z,8.15
2022-11-13T08:26:30.490Z,8.15
2022-11-13T08:27:30.352Z,8.12
2022-11-13T08:28:30.679Z,8.25
2022-11-13T08:29:30.326Z,8.40
2022-11-13T08:30:30.333Z,8.45
2022-11-13T08:31:30.336Z,8.58
2022-11-13T08:32:30.320Z,8.63
2022-11-13T08:33:30.280Z,8.63
2022-11-13T08:34:30.276Z,8.63
2022-11-13T08:35:30.261Z,8.81
2022-11-13T08:36:30.294Z,8.95
2022-11-13T08:37:30.251Z,9.11
2022-11-13T08:38:30.745Z,9.17
2022-11-13T08:39:30.231Z,9.20
2022-11-13T08:40:30.221Z,9.23
2022-11-13T08:41:30.207Z,9.42
2022-11-13T08:42:30.296Z,9.38
2022-11-13T08:43:30.197Z,9.31
2022-11-13T08:44:30.165Z,9.35
2022-11-13T08:45:30.162Z,9.43
2022-11-13T08:46:30.182Z,9.57
2022-11-13T08:47:30.160Z,9.71
2022-11-13T08:48:30.620Z,9.72
2022-11-13T08:49:30.133Z,9.76
2022-11-13T08:50:30.111Z,9.81
2022-11-13T08:51:30.126Z,9.79
2022-11-13T08:52:30.104Z,9.89
2022-11-13T08:53:30.083Z,9.94
2022-11-13T08:54:30.124Z,9.96
2022-11-13T08:55:30.052Z,9.99
2022-11-13T08:56:30.044Z,9.99
2022-11-13T08:57:30.027Z,10.09
2022-11-13T08:58:30.477Z,10.05
2022-11-13T08:59:30.068Z,10.12
2022-11-13T09:00:30.019Z,10.09
2022-11-13T09:01:30.009Z,10.20
2022-11-13T09:02:29.973Z,10.25
2022-11-13T09:03:30.006Z,10.29
2022-11-13T09:04:29.991Z,10.26
2022-11-13T09:05:29.934Z,10.34
2022-11-13T09:06:29.965Z,10.41
2022-11-13T09:07:29.978Z,10.42
2022-11-13T09:08:30.352Z,10.40
2022-11-13T09:09:29.897Z,10.36
2022-11-13T09:10:29.902Z,10.41
2022-11-13T09:11:29.892Z,10.52
2022-11-13T09:12:29.884Z,10.53
2022-11-13T09:13:29.851Z,10.61
2022-11-13T09:14:29.958Z,10.60
2022-11-13T09:15:29.855Z,10.48
2022-11-13T09:16:29.830Z,10.55
2022-11-13T09:17:29.841Z,10.53
2022-11-13T09:18:30.473Z,10.64
2022-11-13T09:19:29.804Z,10.68
2022-11-13T09:20:29.788Z,10.79
2022-11-13T09:21:29.785Z,10.89
2022-11-13T09:22:29.781Z,11.02
2022-11-13T09:23:29.779Z,11.06
2022-11-13T09:24:29.749Z,11.10
2022-11-13T09:25:35.822Z,11.25
2022-11-13T09:26:30.715Z,11.28
2022-11-13T09:27:29.723Z,11.22
2022-11-13T09:28:29.914Z,11.35
2022-11-13T09:29:29.707Z,11.39
2022-11-13T09:30:29.783Z,11.60
2022-11-13T09:31:29.697Z,11.72
2022-11-13T09:32:29.693Z,11.73
2022-11-13T09:33:29.678Z,11.82
2022-11-13T09:34:29.644Z,11.85
2022-11-13T09:35:29.619Z,11.99
2022-11-13T09:36:29.654Z,12.12
2022-11-13T09:37:29.601Z,12.20
2022-11-13T09:38:30.089Z,12.28
2022-11-13T09:39:29.610Z,12.34
2022-11-13T09:40:29.577Z,12.41
2022-11-13T09:41:29.585Z,12.41
2022-11-13T09:42:29.543Z,12.41
2022-11-13T09:43:29.535Z,12.45
2022-11-13T09:44:29.519Z,12.53
2022-11-13T09:45:29.522Z,12.50
2022-11-13T09:46:29.638Z,12.56
2022-11-13T09:47:29.494Z,12.54
2022-11-13T09:48:29.909Z,12.45
2022-11-13T09:49:29.481Z,12.41
2022-11-13T09:50:29.468Z,12.47
2022-11-13T09:51:29.486Z,12.54
2022-11-13T09:52:29.449Z,12.67
2022-11-13T09:53:29.465Z,12.71
2022-11-13T09:54:29.416Z,12.86
2022-11-13T09:55:29.455Z,12.96
2022-11-13T09:56:29.437Z,13.07
2022-11-13T09:57:29.372Z,13.01
2022-11-13T09:58:29.644Z,13.04
2022-11-13T09:59:29.406Z,13.01
2022-11-13T10:00:29.352Z,13.05
2022-11-13T10:01:29.434Z,13.08
2022-11-13T10:02:29.432Z,13.12
2022-11-13T10:04:30.301Z,13.01
2022-11-13T10:05:29.312Z,13.10
2022-11-13T10:06:29.275Z,13.00
2022-11-13T10:07:29.286Z,13.00
2022-11-13T10:08:29.608Z,12.92
2022-11-13T10:09:29.274Z,12.83
2022-11-13T10:10:29.241Z,12.87
2022-11-13T10:11:29.228Z,12.92
2022-11-13T10:12:29.220Z,13.04
2022-11-13T10:13:29.234Z,13.14
2022-11-13T10:14:29.207Z,13.26
2022-11-13T10:15:29.193Z,13.36
2022-11-13T10:16:29.195Z,13.57
2022-11-13T10:17:29.157Z,13.52
2022-11-13T10:18:29.648Z,13.66
2022-11-13T10:19:29.165Z,13.79
2022-11-13T10:20:29.133Z,13.84
2022-11-13T10:21:29.130Z,13.99
2022-11-13T10:22:33.920Z,14.03
2022-11-13T10:23:30.590Z,14.02
2022-11-13T10:24:29.078Z,14.09
2022-11-13T10:25:29.092Z,14.07
2022-11-13T10:26:29.085Z,14.10
2022-11-13T10:27:29.170Z,14.21
2022-11-13T10:28:49.621Z,14.17
2022-11-13T10:29:30.024Z,14.17
2022-11-13T10:30:29.022Z,14.27
2022-11-13T10:31:29.118Z,14.15
2022-11-13T10:32:29.027Z,14.02
2022-11-13T10:33:29.463Z,14.04
2022-11-13T10:34:29.094Z,13.92
2022-11-13T10:35:28.964Z,13.97
2022-11-13T10:36:29.012Z,14.06
2022-11-13T10:37:28.946Z,13.99
2022-11-13T10:38:28.965Z,14.06
2022-11-13T10:39:28.927Z,13.84
2022-11-13T10:40:28.924Z,13.63
2022-11-13T10:41:28.914Z,13.54
2022-11-13T10:42:28.889Z,13.66
2022-11-13T10:43:29.377Z,13.42
2022-11-13T10:44:28.871Z,13.42
2022-11-13T10:45:28.868Z,13.36
2022-11-13T10:46:28.929Z,13.19
2022-11-13T10:48:02.068Z,13.17
2022-11-13T10:48:30.356Z,13.22
2022-11-13T10:49:28.816Z,13.19
2022-11-13T10:50:28.917Z,13.25
2022-11-13T10:51:28.804Z,13.12
2022-11-13T10:52:28.800Z,13.04
2022-11-13T10:53:29.046Z,12.93
2022-11-13T10:54:28.776Z,12.75
2022-11-13T10:55:28.759Z,12.70
2022-11-13T10:56:28.785Z,12.53
2022-11-13T10:57:28.747Z,12.50
2022-11-13T10:58:29.151Z,12.50
2022-11-13T10:59:28.711Z,12.62
2022-11-13T11:00:28.698Z,12.59
2022-11-13T11:01:28.779Z,12.59
2022-11-13T11:02:28.734Z,12.59
2022-11-13T11:03:28.661Z,12.53
2022-11-13T11:04:28.686Z,12.54
2022-11-13T11:05:28.713Z,12.53
2022-11-13T11:06:56.325Z,12.59
2022-11-13T11:07:29.681Z,12.56
2022-11-13T11:08:28.865Z,12.65
2022-11-13T11:09:28.624Z,12.71
2022-11-13T11:10:28.598Z,12.65
2022-11-13T11:11:28.596Z,12.70
2022-11-13T11:12:31.222Z,12.74
2022-11-13T11:13:28.560Z,12.74
2022-11-13T11:14:28.589Z,12.71
2022-11-13T11:15:28.554Z,12.79
2022-11-13T11:16:28.524Z,12.82
2022-11-13T11:17:28.516Z,12.75
2022-11-13T11:18:28.918Z,12.74
2022-11-13T11:19:28.511Z,12.71
2022-11-13T11:20:28.512Z,12.77
2022-11-13T11:21:28.495Z,12.67
2022-11-13T11:22:28.584Z,12.64
2022-11-13T11:23:28.477Z,12.54
2022-11-13T11:24:28.451Z,12.42
2022-11-13T11:25:28.449Z,12.46
2022-11-13T11:26:28.421Z,12.50
2022-11-13T11:27:28.423Z,12.46
2022-11-13T11:28:28.829Z,12.50
2022-11-13T11:29:28.411Z,12.47
2022-11-13T11:30:28.381Z,12.41
2022-11-13T11:31:28.368Z,12.42
2022-11-13T11:32:28.394Z,12.39
2022-11-13T11:33:28.371Z,12.34
2022-11-13T11:34:28.375Z,12.37
2022-11-13T11:35:28.346Z,12.49
2022-11-13T11:36:28.317Z,12.35
2022-11-13T11:37:28.345Z,12.41
2022-11-13T11:38:28.807Z,12.39
2022-11-13T11:39:28.298Z,12.37
2022-11-13T11:40:28.275Z,12.45
2022-11-13T11:41:28.269Z,12.21
2022-11-13T11:42:28.288Z,12.28
2022-11-13T11:43:28.260Z,12.31
2022-11-13T11:44:28.224Z,12.28
2022-11-13T11:45:28.245Z,12.24
2022-11-13T11:46:28.208Z,12.32
2022-11-13T11:47:28.197Z,12.27
2022-11-13T11:48:28.597Z,12.41
2022-11-13T11:49:28.181Z,12.21
2022-11-13T11:50:28.211Z,12.28
2022-11-13T11:51:28.166Z,12.19
2022-11-13T11:52:28.148Z,12.28
2022-11-13T11:53:28.148Z,12.32
2022-11-13T11:54:28.246Z,12.24
2022-11-13T11:55:28.112Z,12.20
2022-11-13T11:56:28.116Z,12.28
2022-11-13T11:57:28.089Z,12.32
2022-11-13T11:58:28.318Z,12.27
2022-11-13T11:59:28.094Z,12.42
2022-11-13T12:00:28.058Z,12.29
2022-11-13T12:01:28.050Z,12.27
2022-11-13T12:02:28.074Z,12.28
2022-11-13T12:03:28.048Z,12.34
2022-11-13T12:04:28.012Z,12.32
2022-11-13T12:05:28.110Z,12.42
2022-11-13T12:06:27.992Z,12.38
2022-11-13T12:07:27.998Z,12.39
2022-11-13T12:08:28.273Z,12.37
2022-11-13T12:09:27.962Z,12.46
2022-11-13T12:10:28.143Z,12.47
2022-11-13T12:11:27.938Z,12.34
2022-11-13T12:12:27.940Z,12.46
2022-11-13T12:13:27.911Z,12.42
2022-11-13T12:14:27.896Z,12.38
2022-11-13T12:15:27.891Z,12.42
2022-11-13T12:16:27.886Z,12.42
2022-11-13T12:17:27.912Z,12.42
2022-11-13T12:18:28.283Z,12.38
2022-11-13T12:19:27.853Z,12.46
2022-11-13T12:20:27.839Z,12.39
2022-11-13T12:21:27.823Z,12.42
2022-11-13T12:22:30.802Z,12.37
2022-11-13T12:23:27.810Z,12.38
2022-11-13T12:24:27.825Z,12.41
2022-11-13T12:25:27.796Z,12.45
2022-11-13T12:26:27.881Z,12.46
2022-11-13T12:27:27.759Z,12.45
2022-11-13T12:28:28.207Z,12.52
2022-11-13T12:29:27.739Z,12.59
2022-11-13T12:30:27.760Z,12.62
2022-11-13T12:31:27.714Z,12.70
2022-11-13T12:32:27.713Z,12.67
2022-11-13T12:33:27.701Z,12.70
2022-11-13T12:34:27.705Z,12.71
2022-11-13T12:35:27.676Z,12.71
2022-11-13T12:36:27.693Z,12.78
2022-11-13T12:37:27.651Z,12.78
2022-11-13T12:38:28.155Z,12.85
2022-11-13T12:39:27.629Z,12.89
2022-11-13T12:40:27.622Z,12.95
2022-11-13T12:41:27.609Z,12.96
2022-11-13T12:42:27.726Z,12.90
2022-11-13T12:43:27.580Z,12.90
2022-11-13T12:44:27.599Z,12.96
2022-11-13T12:45:27.564Z,12.93
2022-11-13T12:46:27.574Z,12.92
2022-11-13T12:47:27.609Z,12.87
2022-11-13T12:48:28.008Z,12.86
2022-11-13T12:49:27.532Z,12.85
2022-11-13T12:50:32.129Z,12.82
2022-11-13T12:51:28.496Z,12.87
2022-11-13T12:52:27.509Z,12.90
2022-11-13T12:53:27.529Z,12.83
2022-11-13T12:54:27.482Z,12.85
2022-11-13T12:55:27.466Z,12.86
2022-11-13T12:56:27.462Z,12.85
2022-11-13T12:57:30.627Z,12.89
2022-11-13T12:58:27.896Z,12.87
2022-11-13T12:59:31.836Z,12.83
2022-11-13T13:00:27.425Z,12.85
2022-11-13T13:01:27.523Z,12.92
2022-11-13T13:02:27.405Z,12.83
2022-11-13T13:03:27.368Z,12.90
2022-11-13T13:04:27.366Z,12.85
2022-11-13T13:05:27.350Z,12.92
2022-11-13T13:06:27.337Z,12.90
2022-11-13T13:07:27.333Z,12.87
2022-11-13T13:08:27.669Z,12.87
2022-11-13T13:09:27.310Z,12.85
2022-11-13T13:10:27.313Z,12.90
2022-11-13T13:11:27.317Z,12.96
2022-11-13T13:12:27.276Z,12.90
2022-11-13T13:13:27.268Z,12.78
2022-11-13T13:14:27.303Z,12.93
2022-11-13T13:15:27.250Z,12.96
2022-11-13T13:16:27.238Z,12.87
2022-11-13T13:17:27.223Z,13.01
2022-11-13T13:18:27.532Z,13.00
2022-11-13T13:19:27.231Z,12.93
2022-11-13T13:20:27.189Z,12.87
2022-11-13T13:21:27.181Z,12.90
2022-11-13T13:22:27.220Z,13.01
2022-11-13T13:23:27.157Z,13.00
2022-11-13T13:24:27.153Z,12.95
2022-11-13T13:25:27.174Z,12.96
2022-11-13T13:26:27.129Z,12.90
2022-11-13T13:27:27.134Z,12.83
2022-11-13T13:28:27.426Z,12.78
2022-11-13T13:29:27.092Z,12.92
2022-11-13T13:30:27.210Z,12.83
2022-11-13T13:31:27.087Z,12.75
2022-11-13T13:32:27.050Z,12.72
2022-11-13T13:33:27.056Z,12.67
2022-11-13T13:34:31.047Z,12.65
2022-11-13T13:35:28.030Z,12.62
2022-11-13T13:36:27.037Z,12.53
2022-11-13T13:37:27.010Z,12.53
2022-11-13T13:38:27.427Z,12.42
2022-11-13T13:39:27.091Z,12.42
2022-11-13T13:40:29.429Z,12.37
2022-11-13T13:41:32.410Z,12.45
2022-11-13T13:42:33.427Z,12.32
2022-11-13T13:43:34.907Z,12.29
2022-11-13T13:44:31.430Z,12.24
2022-11-13T13:45:35.542Z,12.21
2022-11-13T13:46:31.428Z,12.17
2022-11-13T13:47:26.987Z,12.10
2022-11-13T13:48:29.860Z,12.14
2022-11-13T13:49:52.510Z,12.12
2022-11-13T13:50:26.856Z,12.10
2022-11-13T13:51:26.845Z,12.09
2022-11-13T13:52:26.840Z,11.96
2022-11-13T13:53:26.828Z,11.95
2022-11-13T13:54:26.809Z,11.82
2022-11-13T13:55:26.818Z,11.85
2022-11-13T13:56:26.794Z,11.83
2022-11-13T13:57:26.777Z,11.80
2022-11-13T13:58:26.995Z,11.80
2022-11-13T13:59:26.771Z,11.83
2022-11-13T14:00:26.745Z,11.78
2022-11-13T14:01:26.918Z,11.64
2022-11-13T14:02:26.753Z,11.57
2022-11-13T14:03:26.741Z,11.65
2022-11-13T14:04:26.708Z,11.70
2022-11-13T14:05:26.695Z,11.64
2022-11-13T14:06:26.692Z,11.72
2022-11-13T14:07:26.840Z,11.61
2022-11-13T14:08:26.908Z,11.54
2022-11-13T14:09:26.668Z,11.54
2022-11-13T14:10:26.662Z,11.52
2022-11-13T14:11:26.629Z,11.51
2022-11-13T14:12:26.617Z,11.49
2022-11-13T14:13:26.607Z,11.51
2022-11-13T14:14:26.628Z,11.40
2022-11-13T14:15:26.620Z,11.43
2022-11-13T14:16:26.599Z,11.37
2022-11-13T14:17:26.691Z,11.32
2022-11-13T14:18:26.836Z,11.37
2022-11-13T14:19:26.542Z,11.36
2022-11-13T14:20:26.536Z,11.37
2022-11-13T14:21:26.549Z,11.24
2022-11-13T14:22:26.531Z,11.27
2022-11-13T14:23:26.505Z,11.18
2022-11-13T14:24:26.492Z,11.24
2022-11-13T14:25:26.625Z,11.28
2022-11-13T14:26:26.474Z,11.25
2022-11-13T14:27:26.481Z,11.32
2022-11-13T14:28:26.719Z,11.21
2022-11-13T14:29:26.435Z,11.15
2022-11-13T14:30:26.426Z,11.22
2022-11-13T14:31:26.452Z,11.09
2022-11-13T14:32:26.424Z,11.18
2022-11-13T14:33:26.846Z,11.15
2022-11-13T14:34:26.431Z,11.19
2022-11-13T14:35:26.389Z,11.22
2022-11-13T14:36:26.370Z,11.11
2022-11-13T14:37:26.357Z,11.10
2022-11-13T14:38:26.375Z,11.09
2022-11-13T14:39:26.350Z,11.10
2022-11-13T14:40:26.326Z,11.10
2022-11-13T14:41:26.308Z,11.03
2022-11-13T14:42:26.333Z,11.03
2022-11-13T14:43:26.670Z,11.03
2022-11-13T14:44:30.755Z,11.00
2022-11-13T14:45:27.263Z,10.92
2022-11-13T14:46:26.310Z,10.96
2022-11-13T14:47:26.257Z,10.96
2022-11-13T14:48:26.254Z,10.96
2022-11-13T14:49:26.331Z,10.88
2022-11-13T14:50:26.224Z,10.85
2022-11-13T14:51:26.195Z,10.91
2022-11-13T14:52:26.208Z,10.89
2022-11-13T14:53:26.600Z,10.91
2022-11-13T14:54:26.209Z,11.04
2022-11-13T14:55:26.159Z,11.09
2022-11-13T14:56:26.143Z,11.19
2022-11-13T14:57:26.150Z,11.19
2022-11-13T14:58:26.131Z,11.22
2022-11-13T14:59:26.109Z,11.35
2022-11-13T15:00:26.115Z,11.42
2022-11-13T15:01:26.119Z,11.33
2022-11-13T15:02:26.105Z,11.35
2022-11-13T15:03:26.389Z,11.35
2022-11-13T15:04:26.078Z,11.27
2022-11-13T15:05:26.181Z,11.28
2022-11-13T15:06:26.075Z,11.18
2022-11-13T15:07:26.106Z,11.17
2022-11-13T15:08:26.016Z,11.15
2022-11-13T15:09:26.060Z,11.07
2022-11-13T15:10:25.995Z,11.04
2022-11-13T15:11:25.987Z,11.04
2022-11-13T15:12:25.986Z,11.07
2022-11-13T15:13:26.314Z,11.02
2022-11-13T15:14:25.976Z,10.92
2022-11-13T15:15:25.999Z,10.85
2022-11-13T15:16:25.944Z,10.88
2022-11-13T15:17:25.917Z,10.78
2022-11-13T15:18:25.942Z,10.76
2022-11-13T15:19:25.915Z,10.63
2022-11-13T15:20:25.890Z,10.64
2022-11-13T15:21:25.985Z,10.70
2022-11-13T15:22:27.585Z,10.66
2022-11-13T15:23:26.233Z,10.59
2022-11-13T15:24:25.856Z,10.59
2022-11-13T15:25:25.859Z,10.53
2022-11-13T15:26:25.834Z,10.48
2022-11-13T15:27:25.810Z,10.55
2022-11-13T15:28:25.818Z,10.45
2022-11-13T15:29:25.793Z,10.51
2022-11-13T15:30:25.811Z,10.41
2022-11-13T15:31:25.808Z,10.34
2022-11-13T15:32:25.788Z,10.26
2022-11-13T15:33:25.983Z,10.32
2022-11-13T15:34:25.739Z,10.27
2022-11-13T15:35:25.752Z,10.23
2022-11-13T15:36:25.759Z,10.22
2022-11-13T15:37:25.855Z,10.20
2022-11-13T15:38:25.754Z,10.12
2022-11-13T15:39:26.915Z,10.17
2022-11-13T15:40:25.697Z,10.12
2022-11-13T15:41:25.682Z,10.08
2022-11-13T15:42:25.663Z,10.02
2022-11-13T15:43:25.836Z,10.01
2022-11-13T15:44:25.642Z,10.01
2022-11-13T15:45:25.631Z,10.05
2022-11-13T15:46:25.614Z,9.93
2022-11-13T15:47:25.618Z,9.99
2022-11-13T15:48:25.607Z,9.93
2022-11-13T15:49:25.613Z,9.90
2022-11-13T15:50:25.578Z,9.84
2022-11-13T15:51:25.558Z,9.94
2022-11-13T15:52:25.574Z,9.91
2022-11-13T15:53:25.914Z,9.86
2022-11-13T15:54:25.519Z,9.89
2022-11-13T15:55:25.513Z,9.83
2022-11-13T15:56:25.508Z,9.86
2022-11-13T15:57:25.493Z,9.86
2022-11-13T15:58:28.176Z,9.87
2022-11-13T15:59:26.473Z,9.87
2022-11-13T16:00:25.583Z,9.83
2022-11-13T16:01:25.590Z,9.89
2022-11-13T16:02:25.435Z,9.83
2022-11-13T16:03:25.490Z,9.89
2022-11-13T16:04:30.213Z,9.71
2022-11-13T16:05:26.404Z,9.84
2022-11-13T16:06:25.406Z,9.75
2022-11-13T16:07:25.526Z,9.64
2022-11-13T16:08:25.381Z,9.76
2022-11-13T16:09:25.381Z,9.66
2022-11-13T16:10:25.503Z,9.57
2022-11-13T16:11:25.345Z,9.64
2022-11-13T16:12:25.353Z,9.66
2022-11-13T16:13:25.362Z,9.65
2022-11-13T16:14:25.568Z,9.64
2022-11-13T16:15:25.301Z,9.64
2022-11-13T16:16:25.281Z,9.68
2022-11-13T16:17:25.265Z,9.65
2022-11-13T16:18:25.290Z,9.57
2022-11-13T16:19:25.291Z,9.50
2022-11-13T16:20:25.246Z,9.61
2022-11-13T16:21:25.241Z,9.53
2022-11-13T16:22:25.222Z,9.50
2022-11-13T16:23:25.218Z,9.48
2022-11-13T16:24:25.207Z,9.54
2022-11-13T16:25:25.336Z,9.48
2022-11-13T16:26:25.186Z,9.43
2022-11-13T16:27:25.186Z,9.42
2022-11-13T16:28:25.168Z,9.46
2022-11-13T16:29:25.151Z,9.39
2022-11-13T16:30:25.146Z,9.46
2022-11-13T16:31:25.158Z,9.42
2022-11-13T16:32:25.133Z,9.35
2022-11-13T16:33:25.121Z,9.39
2022-11-13T16:34:25.098Z,9.28
2022-11-13T16:35:25.093Z,9.26
2022-11-13T16:36:25.081Z,9.33
2022-11-13T16:37:25.096Z,9.29
2022-11-13T16:38:25.074Z,9.24
2022-11-13T16:39:25.086Z,9.26
2022-11-13T16:40:25.025Z,9.29
2022-11-13T16:41:25.140Z,9.26
2022-11-13T16:42:29.783Z,9.21
2022-11-13T16:43:26.373Z,9.18
2022-11-13T16:44:24.991Z,9.11
2022-11-13T16:45:24.987Z,9.26
2022-11-13T16:46:24.969Z,9.13
2022-11-13T16:47:24.965Z,9.32
2022-11-13T16:48:24.973Z,9.24
2022-11-13T16:49:24.929Z,9.21
2022-11-13T16:50:24.920Z,9.11
2022-11-13T16:51:24.974Z,9.20
2022-11-13T16:52:24.966Z,9.04
2022-11-13T16:53:24.927Z,9.11
2022-11-13T16:54:24.879Z,9.02
2022-11-13T16:55:24.866Z,9.08
2022-11-13T16:56:24.871Z,8.98
2022-11-13T16:57:24.965Z,8.98
2022-11-13T16:58:24.894Z,8.96
2022-11-13T16:59:24.812Z,8.94
2022-11-13T17:00:24.817Z,8.89
2022-11-13T17:01:24.887Z,8.86
2022-11-13T17:02:24.828Z,8.81
2022-11-13T17:03:24.781Z,8.92
2022-11-13T17:04:24.823Z,8.80
2022-11-13T17:05:24.796Z,8.84
2022-11-13T17:06:24.746Z,8.81
2022-11-13T17:07:24.799Z,8.87
2022-11-13T17:08:24.745Z,8.84
2022-11-13T17:09:24.757Z,8.84
2022-11-13T17:10:31.217Z,8.80
2022-11-13T17:11:25.687Z,8.89
2022-11-13T17:12:24.732Z,8.83
2022-11-13T17:13:24.779Z,8.87
2022-11-13T17:14:24.672Z,8.83
2022-11-13T17:15:24.668Z,8.80
2022-11-13T17:16:24.639Z,8.80
2022-11-13T17:17:24.635Z,8.86
2022-11-13T17:18:24.652Z,8.84
2022-11-13T17:19:24.609Z,8.73
2022-11-13T17:20:24.609Z,8.81
2022-11-13T17:21:24.587Z,8.79
2022-11-13T17:22:24.576Z,8.80
2022-11-13T17:23:24.568Z,8.83
2022-11-13T17:24:24.555Z,8.77
2022-11-13T17:25:24.543Z,8.73
2022-11-13T17:26:24.526Z,8.68
2022-11-13T17:27:24.546Z,8.74
2022-11-13T17:28:24.515Z,8.80
2022-11-13T17:29:24.603Z,8.71
2022-11-13T17:30:24.500Z,8.76
2022-11-13T17:31:24.487Z,8.68
2022-11-13T17:32:24.479Z,8.71
2022-11-13T17:33:24.448Z,8.58
2022-11-13T17:34:24.464Z,8.59
2022-11-13T17:35:24.461Z,8.58
2022-11-13T17:36:24.439Z,8.56
2022-11-13T17:37:25.414Z,8.52
2022-11-13T17:38:24.420Z,8.61
2022-11-13T17:39:24.392Z,8.56
2022-11-13T17:40:24.399Z,8.48
2022-11-13T17:41:24.407Z,8.47
2022-11-13T17:42:24.361Z,8.47
2022-11-13T17:43:24.345Z,8.53
2022-11-13T17:44:24.351Z,8.48
2022-11-13T17:45:24.445Z,8.55
2022-11-13T17:46:24.319Z,8.47
2022-11-13T17:47:24.341Z,8.56
2022-11-13T17:48:24.296Z,8.56
2022-11-13T17:49:24.278Z,8.55
2022-11-13T17:50:24.256Z,8.58
2022-11-13T17:51:24.272Z,8.58
2022-11-13T17:52:24.261Z,8.55
2022-11-13T17:53:24.242Z,8.45
2022-11-13T17:54:24.228Z,8.55
2022-11-13T17:55:24.244Z,8.47
2022-11-13T17:56:24.218Z,8.50
2022-11-13T17:57:26.908Z,8.55
2022-11-13T17:58:24.175Z,8.45
2022-11-13T17:59:24.196Z,8.41
2022-11-13T18:00:24.159Z,8.45
2022-11-13T18:01:24.359Z,8.50
2022-11-13T18:02:24.147Z,8.33
2022-11-13T18:03:24.136Z,8.40
2022-11-13T18:04:24.125Z,8.30
2022-11-13T18:05:24.107Z,8.40
2022-11-13T18:06:24.097Z,8.34
2022-11-13T18:07:24.151Z,8.38
2022-11-13T18:08:24.079Z,8.40
2022-11-13T18:09:24.063Z,8.43
2022-11-13T18:10:24.082Z,8.34
2022-11-13T18:11:24.039Z,8.29
2022-11-13T18:12:24.034Z,8.29
2022-11-13T18:13:24.031Z,8.23
2022-11-13T18:14:24.032Z,8.26
2022-11-13T18:15:24.027Z,8.25
2022-11-13T18:16:24.033Z,8.29
2022-11-13T18:17:24.093Z,8.23
2022-11-13T18:18:23.991Z,8.25
2022-11-13T18:19:23.954Z,8.28
2022-11-13T18:20:23.998Z,8.28
2022-11-13T18:21:23.945Z,8.36
2022-11-13T18:22:23.946Z,8.38
2022-11-13T18:23:23.955Z,8.33
2022-11-13T18:24:23.978Z,8.36
2022-11-13T18:25:23.898Z,8.33
2022-11-13T18:26:23.904Z,8.33
2022-11-13T18:27:23.865Z,8.28
2022-11-13T18:28:23.861Z,8.34
2022-11-13T18:29:23.874Z,8.33
2022-11-13T18:30:23.834Z,8.23
2022-11-13T18:31:23.850Z,8.20
2022-11-13T18:32:23.829Z,8.29
2022-11-13T18:33:23.948Z,8.19
2022-11-13T18:34:23.788Z,8.25
2022-11-13T18:35:23.797Z,8.22